Terminal Aerodrome Forecast
Issued by NWS

Home | Current Version | Previous Version | Text Only | Print | Product List | Glossary On
Versions: 1 2 3 4 5 6 7 8 9 10 11 12 13 14 15 16 17
000
FTUS43 KPAH 232000 AAA
TAFCGI
TAF AMD
KCGI 232043Z 2321/2418 32008KT P6SM SCT025 BKN050
      TEMPO 2321/2401 3SM BR BKN025
     FM240100 36005KT P6SM SCT025
     FM241500 02008KT P6SM SCT035=

USA.gov is the U.S. government's official web portal to all federal, state and local government web resources and services.